sensor_id;sensor_type;location;lat;lon;timestamp;temperature;humidity
19256;DHT22;9762;52.490;13.410;2024-03-29T00:01:46;13.20;78.30
19256;DHT22;9762;52.490;13.410;2024-03-29T00:04:12;13.30;78.50
19256;DHT22;9762;52.490;13.410;2024-03-29T00:06:37;13.20;78.50
19256;DHT22;9762;52.490;13.410;2024-03-29T00:09:03;13.30;78.50
19256;DHT22;9762;52.490;13.410;2024-03-29T00:11:28;13.30;78.50
19256;DHT22;9762;52.490;13.410;2024-03-29T00:13:54;13.30;79.40
19256;DHT22;9762;52.490;13.410;2024-03-29T00:16:20;13.30;78.90
19256;DHT22;9762;52.490;13.410;2024-03-29T00:18:48;13.30;78.90
19256;DHT22;9762;52.490;13.410;2024-03-29T00:21:13;13.30;78.60
19256;DHT22;9762;52.490;13.410;2024-03-29T00:23:40;13.30;78.40
19256;DHT22;9762;52.490;13.410;2024-03-29T00:26:05;13.40;78.40
19256;DHT22;9762;52.490;13.410;2024-03-29T00:28:32;13.40;78.00
19256;DHT22;9762;52.490;13.410;2024-03-29T00:30:58;13.40;77.50
19256;DHT22;9762;52.490;13.410;2024-03-29T00:33:24;13.40;77.50
19256;DHT22;9762;52.490;13.410;2024-03-29T00:35:49;13.40;77.30
19256;DHT22;9762;52.490;13.410;2024-03-29T00:38:15;13.30;77.10
19256;DHT22;9762;52.490;13.410;2024-03-29T00:40:40;13.30;77.70
19256;DHT22;9762;52.490;13.410;2024-03-29T00:43:06;13.40;78.30
19256;DHT22;9762;52.490;13.410;2024-03-29T00:45:32;13.30;79.70
19256;DHT22;9762;52.490;13.410;2024-03-29T00:47:58;13.20;80.50
19256;DHT22;9762;52.490;13.410;2024-03-29T00:50:24;13.20;81.00
19256;DHT22;9762;52.490;13.410;2024-03-29T00:52:49;13.20;81.70
19256;DHT22;9762;52.490;13.410;2024-03-29T00:55:15;13.10;82.60
19256;DHT22;9762;52.490;13.410;2024-03-29T00:57:41;13.20;83.10
19256;DHT22;9762;52.490;13.410;2024-03-29T01:00:07;13.10;83.90
19256;DHT22;9762;52.490;13.410;2024-03-29T01:02:33;13.10;83.60
19256;DHT22;9762;52.490;13.410;2024-03-29T01:04:59;13.30;83.60
19256;DHT22;9762;52.490;13.410;2024-03-29T01:07:24;13.30;83.80
19256;DHT22;9762;52.490;13.410;2024-03-29T01:09:51;13.40;84.10
19256;DHT22;9762;52.490;13.410;2024-03-29T01:12:16;13.30;84.20
19256;DHT22;9762;52.490;13.410;2024-03-29T01:14:44;13.30;84.30
19256;DHT22;9762;52.490;13.410;2024-03-29T01:17:10;13.30;84.50
19256;DHT22;9762;52.490;13.410;2024-03-29T01:19:35;13.40;84.80
19256;DHT22;9762;52.490;13.410;2024-03-29T01:22:01;13.30;84.50
19256;DHT22;9762;52.490;13.410;2024-03-29T01:24:26;13.40;84.70
19256;DHT22;9762;52.490;13.410;2024-03-29T01:26:52;13.40;84.70
19256;DHT22;9762;52.490;13.410;2024-03-29T01:29:17;13.30;84.80
19256;DHT22;9762;52.490;13.410;2024-03-29T01:31:43;13.30;85.00
19256;DHT22;9762;52.490;13.410;2024-03-29T01:34:08;13.30;85.20
19256;DHT22;9762;52.490;13.410;2024-03-29T01:36:34;13.20;85.30
19256;DHT22;9762;52.490;13.410;2024-03-29T01:39:00;13.20;85.40
19256;DHT22;9762;52.490;13.410;2024-03-29T01:41:26;13.20;85.50
19256;DHT22;9762;52.490;13.410;2024-03-29T01:43:55;13.20;85.40
19256;DHT22;9762;52.490;13.410;2024-03-29T01:46:22;13.20;85.40
19256;DHT22;9762;52.490;13.410;2024-03-29T01:48:51;13.20;85.20
19256;DHT22;9762;52.490;13.410;2024-03-29T01:51:18;13.30;85.20
19256;DHT22;9762;52.490;13.410;2024-03-29T01:53:46;13.20;85.00
19256;DHT22;9762;52.490;13.410;2024-03-29T01:56:11;13.20;85.20
19256;DHT22;9762;52.490;13.410;2024-03-29T01:58:39;13.20;85.10
19256;DHT22;9762;52.490;13.410;2024-03-29T02:01:05;13.20;84.90
19256;DHT22;9762;52.490;13.410;2024-03-29T02:03:32;13.10;85.00
19256;DHT22;9762;52.490;13.410;2024-03-29T02:05:58;13.10;85.00
19256;DHT22;9762;52.490;13.410;2024-03-29T02:08:25;13.10;85.10
19256;DHT22;9762;52.490;13.410;2024-03-29T02:10:51;13.10;85.10
19256;DHT22;9762;52.490;13.410;2024-03-29T02:13:17;13.10;85.70
19256;DHT22;9762;52.490;13.410;2024-03-29T02:15:42;13.00;84.90
19256;DHT22;9762;52.490;13.410;2024-03-29T02:18:08;13.00;85.00
19256;DHT22;9762;52.490;13.410;2024-03-29T02:20:34;13.00;84.70
19256;DHT22;9762;52.490;13.410;2024-03-29T02:23:14;12.90;84.60
19256;DHT22;9762;52.490;13.410;2024-03-29T02:25:41;12.90;84.60
19256;DHT22;9762;52.490;13.410;2024-03-29T02:28:07;12.90;84.60
19256;DHT22;9762;52.490;13.410;2024-03-29T02:30:32;12.90;84.40
19256;DHT22;9762;52.490;13.410;2024-03-29T02:32:59;12.90;84.40
19256;DHT22;9762;52.490;13.410;2024-03-29T02:35:26;12.90;84.40
19256;DHT22;9762;52.490;13.410;2024-03-29T02:37:52;12.90;84.40
19256;DHT22;9762;52.490;13.410;2024-03-29T02:40:18;12.90;84.30
19256;DHT22;9762;52.490;13.410;2024-03-29T02:42:44;12.80;84.30
19256;DHT22;9762;52.490;13.410;2024-03-29T02:45:09;12.80;84.30
19256;DHT22;9762;52.490;13.410;2024-03-29T02:47:35;12.80;84.10
19256;DHT22;9762;52.490;13.410;2024-03-29T02:50:00;12.80;84.00
19256;DHT22;9762;52.490;13.410;2024-03-29T02:52:26;12.80;83.90
19256;DHT22;9762;52.490;13.410;2024-03-29T02:54:52;12.80;83.90
19256;DHT22;9762;52.490;13.410;2024-03-29T02:57:18;12.80;83.80
19256;DHT22;9762;52.490;13.410;2024-03-29T02:59:43;12.80;83.60
19256;DHT22;9762;52.490;13.410;2024-03-29T03:02:09;12.80;83.60
19256;DHT22;9762;52.490;13.410;2024-03-29T03:04:34;12.80;83.40
19256;DHT22;9762;52.490;13.410;2024-03-29T03:07:00;12.80;83.40
19256;DHT22;9762;52.490;13.410;2024-03-29T03:09:44;12.80;83.30
19256;DHT22;9762;52.490;13.410;2024-03-29T03:12:31;12.80;83.30
19256;DHT22;9762;52.490;13.410;2024-03-29T03:14:58;12.80;83.30
19256;DHT22;9762;52.490;13.410;2024-03-29T03:17:25;12.80;83.20
19256;DHT22;9762;52.490;13.410;2024-03-29T03:19:52;12.70;83.20
19256;DHT22;9762;52.490;13.410;2024-03-29T03:22:17;12.70;83.30
19256;DHT22;9762;52.490;13.410;2024-03-29T03:24:43;12.70;83.30
19256;DHT22;9762;52.490;13.410;2024-03-29T03:27:09;12.60;83.20
19256;DHT22;9762;52.490;13.410;2024-03-29T03:29:34;12.60;83.40
19256;DHT22;9762;52.490;13.410;2024-03-29T03:32:00;12.60;83.30
19256;DHT22;9762;52.490;13.410;2024-03-29T03:34:26;12.50;83.30
19256;DHT22;9762;52.490;13.410;2024-03-29T03:36:52;12.50;83.30
19256;DHT22;9762;52.490;13.410;2024-03-29T03:39:18;12.50;83.50
19256;DHT22;9762;52.490;13.410;2024-03-29T03:41:43;12.50;83.30
19256;DHT22;9762;52.490;13.410;2024-03-29T03:44:09;12.50;83.30
19256;DHT22;9762;52.490;13.410;2024-03-29T03:46:34;12.50;83.40
19256;DHT22;9762;52.490;13.410;2024-03-29T03:49:00;12.50;83.50
19256;DHT22;9762;52.490;13.410;2024-03-29T03:51:25;12.50;83.40
19256;DHT22;9762;52.490;13.410;2024-03-29T03:53:51;12.50;83.30
19256;DHT22;9762;52.490;13.410;2024-03-29T03:56:17;12.40;83.10
19256;DHT22;9762;52.490;13.410;2024-03-29T03:58:44;12.40;83.10
19256;DHT22;9762;52.490;13.410;2024-03-29T04:01:10;12.40;83.30
19256;DHT22;9762;52.490;13.410;2024-03-29T04:03:35;12.30;83.10
19256;DHT22;9762;52.490;13.410;2024-03-29T04:06:05;12.30;83.00
19256;DHT22;9762;52.490;13.410;2024-03-29T04:08:30;12.30;83.00
19256;DHT22;9762;52.490;13.410;2024-03-29T04:10:56;12.30;82.80
19256;DHT22;9762;52.490;13.410;2024-03-29T04:13:22;12.30;82.50
19256;DHT22;9762;52.490;13.410;2024-03-29T04:15:48;12.30;82.40
19256;DHT22;9762;52.490;13.410;2024-03-29T04:18:13;12.30;82.20
19256;DHT22;9762;52.490;13.410;2024-03-29T04:20:39;12.20;82.30
19256;DHT22;9762;52.490;13.410;2024-03-29T04:23:05;12.20;82.20
19256;DHT22;9762;52.490;13.410;2024-03-29T04:25:31;12.20;82.40
19256;DHT22;9762;52.490;13.410;2024-03-29T04:27:57;12.20;82.60
19256;DHT22;9762;52.490;13.410;2024-03-29T04:30:23;12.20;82.60
19256;DHT22;9762;52.490;13.410;2024-03-29T04:32:49;12.20;82.40
19256;DHT22;9762;52.490;13.410;2024-03-29T04:35:14;12.20;82.40
19256;DHT22;9762;52.490;13.410;2024-03-29T04:37:40;12.20;82.40
19256;DHT22;9762;52.490;13.410;2024-03-29T04:40:06;12.10;82.20
19256;DHT22;9762;52.490;13.410;2024-03-29T04:42:32;12.10;82.30
19256;DHT22;9762;52.490;13.410;2024-03-29T04:44:57;12.10;82.40
19256;DHT22;9762;52.490;13.410;2024-03-29T04:47:23;12.10;82.20
19256;DHT22;9762;52.490;13.410;2024-03-29T04:49:49;12.10;82.50
19256;DHT22;9762;52.490;13.410;2024-03-29T04:52:14;12.10;82.20
19256;DHT22;9762;52.490;13.410;2024-03-29T04:54:40;12.10;82.10
19256;DHT22;9762;52.490;13.410;2024-03-29T04:57:05;12.10;82.10
19256;DHT22;9762;52.490;13.410;2024-03-29T04:59:34;12.10;82.10
19256;DHT22;9762;52.490;13.410;2024-03-29T05:02:00;12.20;82.20
19256;DHT22;9762;52.490;13.410;2024-03-29T05:04:26;12.20;82.20
19256;DHT22;9762;52.490;13.410;2024-03-29T05:09:18;12.20;81.60
19256;DHT22;9762;52.490;13.410;2024-03-29T05:11:44;12.10;81.60
19256;DHT22;9762;52.490;13.410;2024-03-29T05:14:12;12.10;82.10
19256;DHT22;9762;52.490;13.410;2024-03-29T05:16:40;12.10;82.00
19256;DHT22;9762;52.490;13.410;2024-03-29T05:19:05;12.20;82.10
19256;DHT22;9762;52.490;13.410;2024-03-29T05:21:31;12.20;82.30
19256;DHT22;9762;52.490;13.410;2024-03-29T05:23:56;12.20;82.20
19256;DHT22;9762;52.490;13.410;2024-03-29T05:26:22;12.20;82.40
19256;DHT22;9762;52.490;13.410;2024-03-29T05:28:48;12.20;82.40
19256;DHT22;9762;52.490;13.410;2024-03-29T05:31:14;12.30;82.50
19256;DHT22;9762;52.490;13.410;2024-03-29T05:33:43;12.20;82.30
19256;DHT22;9762;52.490;13.410;2024-03-29T05:36:10;12.30;82.40
19256;DHT22;9762;52.490;13.410;2024-03-29T05:38:38;12.30;82.30
19256;DHT22;9762;52.490;13.410;2024-03-29T05:41:04;12.30;82.30
19256;DHT22;9762;52.490;13.410;2024-03-29T05:43:30;12.40;82.30
19256;DHT22;9762;52.490;13.410;2024-03-29T05:45:56;12.40;81.80
19256;DHT22;9762;52.490;13.410;2024-03-29T05:48:22;12.50;81.60
19256;DHT22;9762;52.490;13.410;2024-03-29T05:50:48;12.50;81.20
19256;DHT22;9762;52.490;13.410;2024-03-29T05:53:13;12.50;81.30
19256;DHT22;9762;52.490;13.410;2024-03-29T05:55:39;12.60;81.20
19256;DHT22;9762;52.490;13.410;2024-03-29T05:58:04;12.60;80.80
19256;DHT22;9762;52.490;13.410;2024-03-29T06:00:32;12.70;81.00
19256;DHT22;9762;52.490;13.410;2024-03-29T06:03:01;12.70;80.80
19256;DHT22;9762;52.490;13.410;2024-03-29T06:05:30;12.80;80.90
19256;DHT22;9762;52.490;13.410;2024-03-29T06:07:55;12.90;80.60
19256;DHT22;9762;52.490;13.410;2024-03-29T06:10:21;13.00;80.20
19256;DHT22;9762;52.490;13.410;2024-03-29T06:12:47;13.00;80.20
19256;DHT22;9762;52.490;13.410;2024-03-29T06:15:13;13.10;81.00
19256;DHT22;9762;52.490;13.410;2024-03-29T06:17:57;13.10;80.20
19256;DHT22;9762;52.490;13.410;2024-03-29T06:20:23;13.10;80.40
19256;DHT22;9762;52.490;13.410;2024-03-29T06:22:49;13.20;80.90
19256;DHT22;9762;52.490;13.410;2024-03-29T06:25:15;13.30;80.50
19256;DHT22;9762;52.490;13.410;2024-03-29T06:27:41;13.30;80.30
19256;DHT22;9762;52.490;13.410;2024-03-29T06:30:09;13.40;79.90
19256;DHT22;9762;52.490;13.410;2024-03-29T06:32:35;13.50;79.30
19256;DHT22;9762;52.490;13.410;2024-03-29T06:35:02;13.50;79.10
19256;DHT22;9762;52.490;13.410;2024-03-29T06:37:28;13.50;79.20
19256;DHT22;9762;52.490;13.410;2024-03-29T06:39:54;13.50;78.70
19256;DHT22;9762;52.490;13.410;2024-03-29T06:42:20;13.50;78.80
19256;DHT22;9762;52.490;13.410;2024-03-29T06:44:46;13.60;78.60
19256;DHT22;9762;52.490;13.410;2024-03-29T06:47:12;13.60;78.20
19256;DHT22;9762;52.490;13.410;2024-03-29T06:49:38;13.60;78.10
19256;DHT22;9762;52.490;13.410;2024-03-29T06:52:04;13.60;78.20
19256;DHT22;9762;52.490;13.410;2024-03-29T06:54:29;13.70;78.40
19256;DHT22;9762;52.490;13.410;2024-03-29T06:56:57;13.80;78.40
19256;DHT22;9762;52.490;13.410;2024-03-29T06:59:23;13.80;78.40
19256;DHT22;9762;52.490;13.410;2024-03-29T07:01:49;13.90;77.50
19256;DHT22;9762;52.490;13.410;2024-03-29T07:04:22;13.90;77.50
19256;DHT22;9762;52.490;13.410;2024-03-29T07:06:49;14.00;77.40
19256;DHT22;9762;52.490;13.410;2024-03-29T07:09:19;14.10;77.00
19256;DHT22;9762;52.490;13.410;2024-03-29T07:11:49;14.10;76.90
19256;DHT22;9762;52.490;13.410;2024-03-29T07:14:15;14.10;76.80
19256;DHT22;9762;52.490;13.410;2024-03-29T07:16:42;14.20;76.60
19256;DHT22;9762;52.490;13.410;2024-03-29T07:19:07;14.20;76.10
19256;DHT22;9762;52.490;13.410;2024-03-29T07:21:33;14.30;76.50
19256;DHT22;9762;52.490;13.410;2024-03-29T07:23:59;14.30;75.80
19256;DHT22;9762;52.490;13.410;2024-03-29T07:26:25;14.30;76.00
19256;DHT22;9762;52.490;13.410;2024-03-29T07:28:50;14.30;76.20
19256;DHT22;9762;52.490;13.410;2024-03-29T07:31:16;14.40;76.00
19256;DHT22;9762;52.490;13.410;2024-03-29T07:33:42;14.50;75.30
19256;DHT22;9762;52.490;13.410;2024-03-29T07:36:07;14.40;74.80
19256;DHT22;9762;52.490;13.410;2024-03-29T07:38:37;14.40;75.30
19256;DHT22;9762;52.490;13.410;2024-03-29T07:41:03;14.50;74.50
19256;DHT22;9762;52.490;13.410;2024-03-29T07:43:41;14.50;74.90
19256;DHT22;9762;52.490;13.410;2024-03-29T07:46:16;14.50;74.40
19256;DHT22;9762;52.490;13.410;2024-03-29T07:48:41;14.60;73.90
19256;DHT22;9762;52.490;13.410;2024-03-29T07:51:07;14.60;73.10
19256;DHT22;9762;52.490;13.410;2024-03-29T07:53:32;14.60;73.10
19256;DHT22;9762;52.490;13.410;2024-03-29T07:55:58;14.60;73.30
19256;DHT22;9762;52.490;13.410;2024-03-29T07:58:25;14.60;72.80
19256;DHT22;9762;52.490;13.410;2024-03-29T08:00:51;14.60;73.10
19256;DHT22;9762;52.490;13.410;2024-03-29T08:03:17;14.60;73.30
19256;DHT22;9762;52.490;13.410;2024-03-29T08:05:43;14.70;72.60
19256;DHT22;9762;52.490;13.410;2024-03-29T08:08:18;14.70;72.60
19256;DHT22;9762;52.490;13.410;2024-03-29T08:10:44;14.70;72.60
19256;DHT22;9762;52.490;13.410;2024-03-29T08:13:09;14.60;72.90
19256;DHT22;9762;52.490;13.410;2024-03-29T08:15:35;14.70;73.30
19256;DHT22;9762;52.490;13.410;2024-03-29T08:18:01;14.70;73.90
19256;DHT22;9762;52.490;13.410;2024-03-29T08:20:26;14.70;74.00
19256;DHT22;9762;52.490;13.410;2024-03-29T08:22:56;14.80;73.90
19256;DHT22;9762;52.490;13.410;2024-03-29T08:25:23;14.80;73.70
19256;DHT22;9762;52.490;13.410;2024-03-29T08:27:50;14.90;73.90
19256;DHT22;9762;52.490;13.410;2024-03-29T08:30:16;15.00;73.90
19256;DHT22;9762;52.490;13.410;2024-03-29T08:32:41;15.20;74.00
19256;DHT22;9762;52.490;13.410;2024-03-29T08:35:07;15.30;73.20
19256;DHT22;9762;52.490;13.410;2024-03-29T08:37:33;15.30;72.60
19256;DHT22;9762;52.490;13.410;2024-03-29T08:39:58;15.40;72.70
19256;DHT22;9762;52.490;13.410;2024-03-29T08:42:24;15.50;72.80
19256;DHT22;9762;52.490;13.410;2024-03-29T08:44:50;15.60;73.10
19256;DHT22;9762;52.490;13.410;2024-03-29T08:47:15;15.70;73.40
19256;DHT22;9762;52.490;13.410;2024-03-29T08:49:41;15.80;73.70
19256;DHT22;9762;52.490;13.410;2024-03-29T08:52:06;15.80;73.70
19256;DHT22;9762;52.490;13.410;2024-03-29T08:54:32;16.00;73.30
19256;DHT22;9762;52.490;13.410;2024-03-29T08:56:58;16.00;72.00
19256;DHT22;9762;52.490;13.410;2024-03-29T08:59:24;16.00;72.00
19256;DHT22;9762;52.490;13.410;2024-03-29T09:01:50;16.10;72.70
19256;DHT22;9762;52.490;13.410;2024-03-29T09:04:17;16.10;72.80
19256;DHT22;9762;52.490;13.410;2024-03-29T09:06:42;16.20;72.20
19256;DHT22;9762;52.490;13.410;2024-03-29T09:09:09;16.30;72.50
19256;DHT22;9762;52.490;13.410;2024-03-29T09:11:35;16.30;72.00
19256;DHT22;9762;52.490;13.410;2024-03-29T09:14:00;16.40;72.10
19256;DHT22;9762;52.490;13.410;2024-03-29T09:16:27;16.50;71.10
19256;DHT22;9762;52.490;13.410;2024-03-29T09:18:54;16.60;70.90
19256;DHT22;9762;52.490;13.410;2024-03-29T09:21:20;16.60;70.40
19256;DHT22;9762;52.490;13.410;2024-03-29T09:23:46;16.70;69.90
19256;DHT22;9762;52.490;13.410;2024-03-29T09:26:14;16.70;70.10
19256;DHT22;9762;52.490;13.410;2024-03-29T09:28:40;16.80;70.00
19256;DHT22;9762;52.490;13.410;2024-03-29T09:31:06;16.90;70.00
19256;DHT22;9762;52.490;13.410;2024-03-29T09:33:31;16.90;70.10
19256;DHT22;9762;52.490;13.410;2024-03-29T09:35:58;16.80;70.00
19256;DHT22;9762;52.490;13.410;2024-03-29T09:38:28;16.70;68.40
19256;DHT22;9762;52.490;13.410;2024-03-29T09:41:14;16.80;68.80
19256;DHT22;9762;52.490;13.410;2024-03-29T09:43:45;16.90;69.20
19256;DHT22;9762;52.490;13.410;2024-03-29T09:46:15;16.90;69.20
19256;DHT22;9762;52.490;13.410;2024-03-29T09:48:43;16.90;69.00
19256;DHT22;9762;52.490;13.410;2024-03-29T09:51:11;16.90;68.70
19256;DHT22;9762;52.490;13.410;2024-03-29T09:53:41;17.00;68.20
19256;DHT22;9762;52.490;13.410;2024-03-29T09:56:09;17.00;67.40
19256;DHT22;9762;52.490;13.410;2024-03-29T09:58:36;17.00;67.10
19256;DHT22;9762;52.490;13.410;2024-03-29T10:01:04;16.90;66.30
19256;DHT22;9762;52.490;13.410;2024-03-29T10:03:31;17.00;66.60
19256;DHT22;9762;52.490;13.410;2024-03-29T10:05:58;17.00;66.40
19256;DHT22;9762;52.490;13.410;2024-03-29T10:08:29;16.90;65.60
19256;DHT22;9762;52.490;13.410;2024-03-29T10:10:56;16.80;65.70
19256;DHT22;9762;52.490;13.410;2024-03-29T10:13:22;16.80;67.50
19256;DHT22;9762;52.490;13.410;2024-03-29T10:15:55;16.90;67.70
19256;DHT22;9762;52.490;13.410;2024-03-29T10:18:30;16.80;66.40
19256;DHT22;9762;52.490;13.410;2024-03-29T10:21:07;16.80;67.40
19256;DHT22;9762;52.490;13.410;2024-03-29T10:23:34;16.80;68.00
19256;DHT22;9762;52.490;13.410;2024-03-29T10:26:03;16.70;69.00
19256;DHT22;9762;52.490;13.410;2024-03-29T10:28:33;16.70;70.10
19256;DHT22;9762;52.490;13.410;2024-03-29T10:31:01;16.60;70.80
19256;DHT22;9762;52.490;13.410;2024-03-29T10:33:29;16.50;71.80
19256;DHT22;9762;52.490;13.410;2024-03-29T10:35:59;16.40;72.40
19256;DHT22;9762;52.490;13.410;2024-03-29T10:38:26;16.30;72.60
19256;DHT22;9762;52.490;13.410;2024-03-29T10:40:53;16.30;72.20
19256;DHT22;9762;52.490;13.410;2024-03-29T10:43:19;16.40;72.70
19256;DHT22;9762;52.490;13.410;2024-03-29T10:45:49;16.50;72.90
19256;DHT22;9762;52.490;13.410;2024-03-29T10:48:16;16.50;73.10
19256;DHT22;9762;52.490;13.410;2024-03-29T10:50:43;16.50;72.80
19256;DHT22;9762;52.490;13.410;2024-03-29T10:53:09;16.50;73.20
19256;DHT22;9762;52.490;13.410;2024-03-29T10:55:37;16.40;74.20
19256;DHT22;9762;52.490;13.410;2024-03-29T10:58:04;16.30;74.70
19256;DHT22;9762;52.490;13.410;2024-03-29T11:00:45;16.40;75.40
19256;DHT22;9762;52.490;13.410;2024-03-29T11:03:20;16.40;75.20
19256;DHT22;9762;52.490;13.410;2024-03-29T11:05:50;16.50;75.40
19256;DHT22;9762;52.490;13.410;2024-03-29T11:08:24;16.60;75.80
19256;DHT22;9762;52.490;13.410;2024-03-29T11:10:54;16.70;75.90
19256;DHT22;9762;52.490;13.410;2024-03-29T11:13:34;16.80;75.60
19256;DHT22;9762;52.490;13.410;2024-03-29T11:16:02;16.90;75.40
19256;DHT22;9762;52.490;13.410;2024-03-29T11:18:29;17.00;74.90
19256;DHT22;9762;52.490;13.410;2024-03-29T11:20:57;17.00;74.40
19256;DHT22;9762;52.490;13.410;2024-03-29T11:23:25;17.20;74.20
19256;DHT22;9762;52.490;13.410;2024-03-29T11:25:55;17.30;73.50
19256;DHT22;9762;52.490;13.410;2024-03-29T11:28:33;17.30;73.40
19256;DHT22;9762;52.490;13.410;2024-03-29T11:31:01;17.40;72.90
19256;DHT22;9762;52.490;13.410;2024-03-29T11:33:34;17.30;73.10
19256;DHT22;9762;52.490;13.410;2024-03-29T11:39:20;17.50;72.30
19256;DHT22;9762;52.490;13.410;2024-03-29T11:41:47;17.60;72.00
19256;DHT22;9762;52.490;13.410;2024-03-29T11:44:13;17.60;71.50
19256;DHT22;9762;52.490;13.410;2024-03-29T11:46:38;17.60;71.40
19256;DHT22;9762;52.490;13.410;2024-03-29T11:49:05;17.60;71.40
19256;DHT22;9762;52.490;13.410;2024-03-29T11:51:31;17.70;71.50
19256;DHT22;9762;52.490;13.410;2024-03-29T11:53:57;17.70;71.60
19256;DHT22;9762;52.490;13.410;2024-03-29T11:56:23;17.80;71.10
19256;DHT22;9762;52.490;13.410;2024-03-29T11:58:49;17.80;70.80
19256;DHT22;9762;52.490;13.410;2024-03-29T12:01:15;17.70;71.10
19256;DHT22;9762;52.490;13.410;2024-03-29T12:03:42;17.70;71.40
19256;DHT22;9762;52.490;13.410;2024-03-29T12:06:09;17.60;71.80
19256;DHT22;9762;52.490;13.410;2024-03-29T12:08:39;17.70;72.70
19256;DHT22;9762;52.490;13.410;2024-03-29T12:11:05;17.60;73.20
19256;DHT22;9762;52.490;13.410;2024-03-29T12:13:31;17.60;73.50
19256;DHT22;9762;52.490;13.410;2024-03-29T12:15:57;17.50;73.80
19256;DHT22;9762;52.490;13.410;2024-03-29T12:18:25;17.50;73.70
19256;DHT22;9762;52.490;13.410;2024-03-29T12:20:52;17.40;73.90
19256;DHT22;9762;52.490;13.410;2024-03-29T12:23:22;17.40;74.30
19256;DHT22;9762;52.490;13.410;2024-03-29T12:25:49;17.40;74.60
19256;DHT22;9762;52.490;13.410;2024-03-29T12:28:16;17.40;74.80
19256;DHT22;9762;52.490;13.410;2024-03-29T12:30:44;17.30;74.70
19256;DHT22;9762;52.490;13.410;2024-03-29T12:33:14;17.20;74.40
19256;DHT22;9762;52.490;13.410;2024-03-29T12:35:44;17.30;74.00
19256;DHT22;9762;52.490;13.410;2024-03-29T12:38:14;17.40;73.70
19256;DHT22;9762;52.490;13.410;2024-03-29T12:40:41;17.50;71.70
19256;DHT22;9762;52.490;13.410;2024-03-29T12:43:09;17.60;71.20
19256;DHT22;9762;52.490;13.410;2024-03-29T12:45:36;17.80;70.20
19256;DHT22;9762;52.490;13.410;2024-03-29T12:48:02;17.90;69.70
19256;DHT22;9762;52.490;13.410;2024-03-29T12:50:32;18.20;70.90
19256;DHT22;9762;52.490;13.410;2024-03-29T12:53:00;18.50;70.10
19256;DHT22;9762;52.490;13.410;2024-03-29T12:55:27;18.80;68.60
19256;DHT22;9762;52.490;13.410;2024-03-29T12:57:57;19.10;66.30
19256;DHT22;9762;52.490;13.410;2024-03-29T13:00:26;19.40;64.90
19256;DHT22;9762;52.490;13.410;2024-03-29T13:02:51;19.60;63.60
19256;DHT22;9762;52.490;13.410;2024-03-29T13:05:17;19.70;62.70
19256;DHT22;9762;52.490;13.410;2024-03-29T13:07:43;19.90;61.90
19256;DHT22;9762;52.490;13.410;2024-03-29T13:10:09;19.90;60.60
19256;DHT22;9762;52.490;13.410;2024-03-29T13:12:45;19.80;59.90
19256;DHT22;9762;52.490;13.410;2024-03-29T13:15:25;19.90;59.70
19256;DHT22;9762;52.490;13.410;2024-03-29T13:17:53;19.90;59.20
19256;DHT22;9762;52.490;13.410;2024-03-29T13:20:20;19.90;59.20
19256;DHT22;9762;52.490;13.410;2024-03-29T13:22:47;19.80;59.10
19256;DHT22;9762;52.490;13.410;2024-03-29T13:25:18;19.80;58.80
19256;DHT22;9762;52.490;13.410;2024-03-29T13:27:47;19.70;58.20
19256;DHT22;9762;52.490;13.410;2024-03-29T13:30:13;19.60;58.50
19256;DHT22;9762;52.490;13.410;2024-03-29T13:32:41;19.50;58.10
19256;DHT22;9762;52.490;13.410;2024-03-29T13:35:08;19.40;58.10
19256;DHT22;9762;52.490;13.410;2024-03-29T13:37:42;19.30;58.00
19256;DHT22;9762;52.490;13.410;2024-03-29T13:40:19;19.20;57.60
19256;DHT22;9762;52.490;13.410;2024-03-29T13:42:45;19.30;58.80
19256;DHT22;9762;52.490;13.410;2024-03-29T13:45:11;19.20;58.20
19256;DHT22;9762;52.490;13.410;2024-03-29T13:47:38;19.30;58.90
19256;DHT22;9762;52.490;13.410;2024-03-29T13:50:05;19.50;57.70
19256;DHT22;9762;52.490;13.410;2024-03-29T13:52:31;19.60;57.50
19256;DHT22;9762;52.490;13.410;2024-03-29T13:54:58;19.70;57.20
19256;DHT22;9762;52.490;13.410;2024-03-29T13:57:23;19.70;57.20
19256;DHT22;9762;52.490;13.410;2024-03-29T13:59:50;19.90;57.60
19256;DHT22;9762;52.490;13.410;2024-03-29T14:02:17;20.00;57.50
19256;DHT22;9762;52.490;13.410;2024-03-29T14:04:44;20.20;56.70
19256;DHT22;9762;52.490;13.410;2024-03-29T14:07:11;20.30;56.30
19256;DHT22;9762;52.490;13.410;2024-03-29T14:12:05;20.70;56.10
19256;DHT22;9762;52.490;13.410;2024-03-29T14:14:31;21.00;56.40
19256;DHT22;9762;52.490;13.410;2024-03-29T14:16:57;21.10;55.50
19256;DHT22;9762;52.490;13.410;2024-03-29T14:19:23;21.20;55.30
19256;DHT22;9762;52.490;13.410;2024-03-29T14:21:49;21.40;55.20
19256;DHT22;9762;52.490;13.410;2024-03-29T14:24:15;21.50;54.70
19256;DHT22;9762;52.490;13.410;2024-03-29T14:26:44;21.50;54.80
19256;DHT22;9762;52.490;13.410;2024-03-29T14:29:09;21.60;54.60
19256;DHT22;9762;52.490;13.410;2024-03-29T14:31:37;21.70;55.60
19256;DHT22;9762;52.490;13.410;2024-03-29T14:34:03;21.70;55.00
19256;DHT22;9762;52.490;13.410;2024-03-29T14:36:29;21.50;55.20
19256;DHT22;9762;52.490;13.410;2024-03-29T14:38:58;21.40;55.80
19256;DHT22;9762;52.490;13.410;2024-03-29T14:41:25;21.40;56.30
19256;DHT22;9762;52.490;13.410;2024-03-29T14:43:52;21.40;56.40
19256;DHT22;9762;52.490;13.410;2024-03-29T14:46:18;21.40;56.20
19256;DHT22;9762;52.490;13.410;2024-03-29T14:48:46;21.50;56.20
19256;DHT22;9762;52.490;13.410;2024-03-29T14:51:12;21.40;56.40
19256;DHT22;9762;52.490;13.410;2024-03-29T14:53:38;21.30;56.30
19256;DHT22;9762;52.490;13.410;2024-03-29T14:56:04;21.30;57.10
19256;DHT22;9762;52.490;13.410;2024-03-29T14:58:29;21.30;57.20
19256;DHT22;9762;52.490;13.410;2024-03-29T15:00:55;21.30;57.10
19256;DHT22;9762;52.490;13.410;2024-03-29T15:03:21;21.20;57.20
19256;DHT22;9762;52.490;13.410;2024-03-29T15:05:48;21.10;57.80
19256;DHT22;9762;52.490;13.410;2024-03-29T15:08:13;21.10;58.20
19256;DHT22;9762;52.490;13.410;2024-03-29T15:10:45;21.20;58.00
19256;DHT22;9762;52.490;13.410;2024-03-29T15:13:11;21.10;57.90
19256;DHT22;9762;52.490;13.410;2024-03-29T15:15:36;20.90;58.20
19256;DHT22;9762;52.490;13.410;2024-03-29T15:18:04;20.80;58.70
19256;DHT22;9762;52.490;13.410;2024-03-29T15:20:31;20.80;58.70
19256;DHT22;9762;52.490;13.410;2024-03-29T15:22:57;20.80;59.20
19256;DHT22;9762;52.490;13.410;2024-03-29T15:25:24;20.80;60.80
19256;DHT22;9762;52.490;13.410;2024-03-29T15:27:50;20.70;60.80
19256;DHT22;9762;52.490;13.410;2024-03-29T15:30:34;20.70;60.70
19256;DHT22;9762;52.490;13.410;2024-03-29T15:33:01;20.50;60.80
19256;DHT22;9762;52.490;13.410;2024-03-29T15:35:27;20.40;61.50
19256;DHT22;9762;52.490;13.410;2024-03-29T15:37:53;20.40;61.90